Time;durP1;ratioP1;P1;durP2;ratioP2;P2;SDS_P1;SDS_P2;PMS_P1;PMS_P2;Temp;Humidity;BMP_temperature;BMP_pressure;BME280_temperature;BME280_humidity;BME280_pressure;Samples;Min_cycle;Max_cycle;Signal;HPM_P1;HPM_P2
2023/06/27 00:00:23;;;;;;;20.90;7.45;;;20.30;99.90;;;;;;4903233;29;20145;-76
2023/06/27 00:02:53;;;;;;;22.88;8.38;;;20.20;99.90;;;;;;4907467;29;20059;-76
2023/06/27 00:05:21;;;;;;;19.30;7.60;;;20.30;99.90;;;;;;4902726;29;20576;-76
2023/06/27 00:07:49;;;;;;;20.90;8.38;;;20.20;99.90;;;;;;4893819;29;20175;-76
2023/06/27 00:10:16;;;;;;;19.35;7.57;;;20.50;99.90;;;;;;4897101;29;20044;-76
2023/06/27 00:12:44;;;;;;;18.38;7.15;;;20.10;99.90;;;;;;4902134;29;20066;-76
2023/06/27 00:15:12;;;;;;;16.90;8.07;;;20.10;99.90;;;;;;4900653;29;20045;-76
2023/06/27 00:17:41;;;;;;;20.17;7.80;;;20.10;99.90;;;;;;4895176;29;20052;-76
2023/06/27 00:20:09;;;;;;;19.50;8.43;;;19.90;99.90;;;;;;4890285;29;20049;-76
2023/06/27 00:22:39;;;;;;;18.00;8.00;;;20.00;99.90;;;;;;4888223;29;20095;-76
2023/06/27 00:25:10;;;;;;;17.83;9.05;;;20.00;99.90;;;;;;4882113;29;20056;-76
2023/06/27 00:27:38;;;;;;;16.48;7.68;;;20.00;99.90;;;;;;4891213;29;20067;-76
2023/06/27 00:30:14;;;;;;;18.65;8.40;;;20.00;99.90;;;;;;4905061;29;20404;-76
2023/06/27 00:32:41;;;;;;;21.50;8.18;;;19.90;99.90;;;;;;4877360;29;20484;-76
2023/06/27 00:35:09;;;;;;;16.98;7.68;;;19.90;99.90;;;;;;4879820;29;20059;-76
2023/06/27 00:37:37;;;;;;;19.05;8.50;;;19.80;99.90;;;;;;4894399;29;20076;-76
2023/06/27 00:40:07;;;;;;;15.63;7.60;;;19.80;99.90;;;;;;4902686;29;20049;-76
2023/06/27 00:42:36;;;;;;;20.90;8.23;;;19.80;99.90;;;;;;4875725;29;20436;-76
2023/06/27 00:45:05;;;;;;;18.20;8.13;;;19.80;99.90;;;;;;4871508;29;20575;-76
2023/06/27 00:47:34;;;;;;;20.02;8.30;;;19.80;99.90;;;;;;4869272;29;20832;-76
2023/06/27 00:50:04;;;;;;;19.27;7.90;;;19.70;99.90;;;;;;4885348;29;20047;-76
2023/06/27 00:52:32;;;;;;;16.80;7.68;;;19.70;99.90;;;;;;4883676;29;20071;-76
2023/06/27 00:55:00;;;;;;;17.13;7.22;;;19.70;99.90;;;;;;4895766;29;20075;-76
2023/06/27 00:57:28;;;;;;;13.63;6.53;;;19.60;99.90;;;;;;4887254;29;20044;-76
2023/06/27 00:59:56;;;;;;;14.55;7.43;;;19.60;99.90;;;;;;4890936;29;20512;-76
2023/06/27 01:02:23;;;;;;;14.07;7.38;;;19.60;99.90;;;;;;4886143;29;20055;-76
2023/06/27 01:04:55;;;;;;;11.25;6.35;;;19.60;99.90;;;;;;4877576;29;20151;-76
2023/06/27 01:07:29;;;;;;;12.90;5.83;;;19.60;99.90;;;;;;4891339;29;20148;-76
2023/06/27 01:10:03;;;;;;;16.92;6.47;;;19.60;99.90;;;;;;4896832;29;20295;-76
2023/06/27 01:12:44;;;;;;;11.82;5.90;;;19.60;99.90;;;;;;4891696;29;20607;-76
2023/06/27 01:15:12;;;;;;;10.38;6.03;;;19.60;99.90;;;;;;4902281;29;20048;-76
2023/06/27 01:17:40;;;;;;;12.00;6.57;;;19.60;99.90;;;;;;4885232;29;20044;-76
2023/06/27 01:20:09;;;;;;;13.20;6.53;;;19.60;99.90;;;;;;4894171;29;20050;-76
2023/06/27 01:22:41;;;;;;;11.98;6.70;;;19.60;99.90;;;;;;4901342;29;20044;-76
2023/06/27 01:25:12;;;;;;;12.98;6.70;;;19.50;99.90;;;;;;4877148;29;20104;-76
2023/06/27 01:27:39;;;;;;;10.57;6.38;;;19.50;99.90;;;;;;4889016;29;20056;-76
2023/06/27 01:30:08;;;;;;;11.20;5.82;;;19.50;99.90;;;;;;4877480;29;20058;-76
2023/06/27 01:32:45;;;;;;;11.55;5.90;;;19.60;99.90;;;;;;4874360;29;20112;-76
2023/06/27 01:35:31;;;;;;;11.38;6.28;;;19.40;99.90;;;;;;4879848;29;20143;-76
2023/06/27 01:38:04;;;;;;;11.20;6.43;;;19.40;99.90;;;;;;4914416;29;20040;-76
2023/06/27 01:40:36;;;;;;;13.75;7.13;;;19.40;99.90;;;;;;4893416;29;20060;-76
2023/06/27 01:43:08;;;;;;;12.57;6.35;;;19.40;99.90;;;;;;4879102;29;20056;-76
2023/06/27 01:45:38;;;;;;;11.88;6.45;;;19.30;99.90;;;;;;4895832;29;20060;-76
2023/06/27 01:48:08;;;;;;;10.60;5.18;;;19.40;99.90;;;;;;4892733;29;20153;-76
2023/06/27 01:50:35;;;;;;;12.15;6.00;;;19.30;99.90;;;;;;4891511;29;20076;-76
2023/06/27 01:53:04;;;;;;;10.27;4.88;;;19.30;99.90;;;;;;4903608;29;20140;-76
2023/06/27 01:55:32;;;;;;;12.07;6.22;;;19.30;99.90;;;;;;4906228;29;20045;-76
2023/06/27 01:58:00;;;;;;;12.98;6.32;;;19.30;99.90;;;;;;4888709;29;20052;-76
2023/06/27 02:00:28;;;;;;;10.07;6.13;;;19.30;99.90;;;;;;4891901;29;20138;-76
2023/06/27 02:02:57;;;;;;;14.93;5.60;;;19.20;99.90;;;;;;4894990;29;20055;-76
2023/06/27 02:05:25;;;;;;;9.65;5.47;;;19.20;99.90;;;;;;4886347;29;20058;-76
2023/06/27 02:07:52;;;;;;;15.25;6.47;;;19.20;99.90;;;;;;4907978;29;20080;-76
2023/06/27 02:10:21;;;;;;;11.80;5.50;;;19.20;99.90;;;;;;4882056;29;20504;-76
2023/06/27 02:12:48;;;;;;;12.32;6.25;;;19.10;99.90;;;;;;4895053;29;20167;-76
2023/06/27 02:15:16;;;;;;;16.58;6.18;;;19.20;99.90;;;;;;4891927;29;20132;-76
2023/06/27 02:17:44;;;;;;;12.05;6.45;;;18.90;99.90;;;;;;4884110;29;20119;-76
2023/06/27 02:20:12;;;;;;;12.45;6.70;;;19.20;99.90;;;;;;4901829;29;20113;-76
2023/06/27 02:22:39;;;;;;;10.88;5.80;;;19.10;99.90;;;;;;4878791;29;20056;-76
2023/06/27 02:25:07;;;;;;;11.90;5.88;;;19.10;99.90;;;;;;4882269;29;20163;-76
2023/06/27 02:27:35;;;;;;;9.93;5.78;;;19.10;99.90;;;;;;4899642;29;20060;-76
2023/06/27 02:30:03;;;;;;;13.05;6.05;;;19.00;99.90;;;;;;4883629;29;20067;-76
2023/06/27 02:32:30;;;;;;;9.52;5.25;;;18.70;99.90;;;;;;4905819;29;20048;-76
2023/06/27 02:34:57;;;;;;;10.57;6.18;;;18.40;99.90;;;;;;4910264;29;20048;-76
2023/06/27 02:37:25;;;;;;;11.65;6.15;;;19.00;99.90;;;;;;4876511;29;23130;-76
2023/06/27 02:39:54;;;;;;;12.65;6.03;;;19.00;99.90;;;;;;4891564;29;20047;-76
2023/06/27 02:42:22;;;;;;;13.70;6.38;;;19.00;99.90;;;;;;4881743;29;20082;-76
2023/06/27 02:44:49;;;;;;;10.32;5.90;;;19.00;99.90;;;;;;4881069;29;20160;-76
2023/06/27 02:47:19;;;;;;;8.38;6.00;;;18.90;99.90;;;;;;4873980;29;20051;-76
2023/06/27 02:49:48;;;;;;;13.57;5.30;;;18.90;99.90;;;;;;4895964;29;20087;-76
2023/06/27 02:52:15;;;;;;;11.43;5.40;;;19.00;99.90;;;;;;4884385;29;20048;-76
2023/06/27 02:54:44;;;;;;;11.43;6.18;;;18.90;99.90;;;;;;4887278;29;20048;-76
2023/06/27 02:57:11;;;;;;;12.23;6.20;;;19.00;99.90;;;;;;4889340;29;20067;-76
2023/06/27 02:59:39;;;;;;;9.77;5.60;;;19.00;99.90;;;;;;4891482;29;20044;-77
2023/06/27 03:02:07;;;;;;;9.32;5.90;;;19.00;99.90;;;;;;4890101;29;20147;-76
2023/06/27 03:04:35;;;;;;;11.40;5.80;;;18.90;99.90;;;;;;4892333;29;20484;-76
2023/06/27 03:07:03;;;;;;;12.93;5.95;;;19.00;99.90;;;;;;4893644;29;20052;-76
2023/06/27 03:09:31;;;;;;;10.90;5.88;;;18.90;99.90;;;;;;4885565;29;22744;-77
2023/06/27 03:11:58;;;;;;;15.15;6.45;;;18.90;99.90;;;;;;4882073;29;20535;-76
2023/06/27 03:14:28;;;;;;;9.80;5.93;;;18.90;99.90;;;;;;4884205;29;20052;-76
2023/06/27 03:16:58;;;;;;;13.13;7.28;;;18.90;99.90;;;;;;4884114;29;20044;-76
2023/06/27 03:19:25;;;;;;;11.45;6.63;;;18.90;99.90;;;;;;4889862;29;20064;-77
2023/06/27 03:22:11;;;;;;;12.52;6.28;;;18.90;99.90;;;;;;4891835;29;20059;-76
2023/06/27 03:24:39;;;;;;;11.88;6.20;;;18.90;99.90;;;;;;4901681;29;20047;-76
2023/06/27 03:27:06;;;;;;;13.35;5.90;;;18.90;99.90;;;;;;4906282;29;20052;-76
2023/06/27 03:29:37;;;;;;;11.15;7.18;;;18.90;99.90;;;;;;4885447;29;20055;-77
2023/06/27 03:32:05;;;;;;;11.32;6.28;;;18.90;99.90;;;;;;4883950;29;20309;-77
2023/06/27 03:34:32;;;;;;;12.05;6.35;;;18.90;99.90;;;;;;4901087;29;20071;-76
2023/06/27 03:36:59;;;;;;;10.18;6.55;;;18.90;99.90;;;;;;4887113;29;20056;-76
2023/06/27 03:39:26;;;;;;;11.75;6.80;;;18.90;99.90;;;;;;4903184;29;20075;-76
2023/06/27 03:41:53;;;;;;;11.85;6.70;;;18.90;99.90;;;;;;4883826;29;20052;-76
2023/06/27 03:44:21;;;;;;;15.27;7.60;;;19.00;99.90;;;;;;4886355;29;20860;-76
2023/06/27 03:46:48;;;;;;;15.57;6.28;;;19.00;99.90;;;;;;4905193;29;20047;-76
2023/06/27 03:49:15;;;;;;;11.35;6.00;;;19.00;99.90;;;;;;4876058;29;20618;-76
2023/06/27 03:51:43;;;;;;;13.00;6.53;;;19.10;99.90;;;;;;4888164;29;20044;-76
2023/06/27 03:54:10;;;;;;;13.00;6.88;;;19.10;99.90;;;;;;4888859;29;20052;-76
2023/06/27 03:56:37;;;;;;;13.35;6.90;;;19.10;99.90;;;;;;4876468;29;20048;-76
2023/06/27 03:59:05;;;;;;;13.90;6.90;;;19.20;99.90;;;;;;4891994;29;20578;-76
2023/06/27 04:01:32;;;;;;;10.50;5.88;;;19.20;99.90;;;;;;4891082;29;20123;-76
2023/06/27 04:03:59;;;;;;;13.68;6.60;;;19.30;99.90;;;;;;4904332;29;20056;-76
2023/06/27 04:06:26;;;;;;;18.02;7.13;;;19.40;99.90;;;;;;4901211;29;20048;-76
2023/06/27 04:08:53;;;;;;;19.20;6.93;;;19.40;99.90;;;;;;4884854;29;20052;-76
2023/06/27 04:11:22;;;;;;;15.07;6.75;;;19.40;99.90;;;;;;4891417;29;20067;-76
2023/06/27 04:13:49;;;;;;;21.42;8.00;;;19.50;99.90;;;;;;4905398;29;20182;-77
2023/06/27 04:16:17;;;;;;;16.70;7.10;;;19.50;99.90;;;;;;4877928;29;20044;-76
2023/06/27 04:18:44;;;;;;;17.55;6.88;;;19.60;99.90;;;;;;4902627;29;20072;-76
2023/06/27 04:21:11;;;;;;;12.18;6.20;;;19.70;99.90;;;;;;4896913;29;20121;-77
2023/06/27 04:23:39;;;;;;;11.57;6.38;;;19.80;99.90;;;;;;4893216;29;20048;-77
2023/06/27 04:26:07;;;;;;;12.48;7.30;;;19.90;99.90;;;;;;4887744;29;20060;-77
2023/06/27 04:28:36;;;;;;;15.73;7.63;;;19.80;99.90;;;;;;4884022;29;21721;-76
2023/06/27 04:31:04;;;;;;;14.40;7.15;;;19.80;99.90;;;;;;4899192;29;20809;-76
2023/06/27 04:33:31;;;;;;;17.05;7.95;;;19.80;99.90;;;;;;4888226;29;20067;-77
2023/06/27 04:36:03;;;;;;;11.60;6.70;;;19.80;99.90;;;;;;4890097;29;20063;-77
2023/06/27 04:38:30;;;;;;;14.65;7.72;;;19.80;99.90;;;;;;4890665;29;20044;-77
2023/06/27 04:40:57;;;;;;;15.20;7.10;;;19.80;99.90;;;;;;4889975;29;20052;-77
2023/06/27 04:43:26;;;;;;;13.32;7.13;;;19.90;99.90;;;;;;4876830;29;20056;-77
2023/06/27 04:45:54;;;;;;;15.82;7.43;;;19.90;99.90;;;;;;4874998;29;20052;-76
2023/06/27 04:48:21;;;;;;;17.02;8.13;;;19.90;99.90;;;;;;4896306;29;20061;-76
2023/06/27 04:50:48;;;;;;;11.85;6.35;;;20.00;99.90;;;;;;4884879;29;20161;-77
2023/06/27 04:53:19;;;;;;;14.45;7.20;;;19.90;99.90;;;;;;4896734;29;20756;-77
2023/06/27 04:55:51;;;;;;;14.55;6.80;;;19.90;99.90;;;;;;4898952;29;20100;-77
2023/06/27 04:58:19;;;;;;;12.05;7.07;;;19.80;99.90;;;;;;4889102;29;22844;-77
2023/06/27 05:00:51;;;;;;;14.43;6.85;;;19.90;99.90;;;;;;4883043;29;20171;-77
2023/06/27 05:03:20;;;;;;;11.55;5.82;;;19.90;99.90;;;;;;4893980;29;20119;-77
2023/06/27 05:05:48;;;;;;;14.02;6.50;;;19.90;99.90;;;;;;4899226;29;20385;-77
2023/06/27 05:08:16;;;;;;;10.68;6.35;;;19.90;99.90;;;;;;4901256;29;20036;-77
2023/06/27 05:10:44;;;;;;;12.98;6.00;;;19.90;99.90;;;;;;4897707;29;20084;-77
2023/06/27 05:13:15;;;;;;;10.60;5.95;;;19.90;99.90;;;;;;4878331;29;20139;-77
2023/06/27 05:15:42;;;;;;;11.57;6.28;;;19.90;99.90;;;;;;4884781;29;20045;-78
2023/06/27 05:18:12;;;;;;;14.25;6.93;;;19.90;99.90;;;;;;4901835;29;20131;-78
2023/06/27 05:20:40;;;;;;;10.13;6.05;;;19.80;99.90;;;;;;4906407;29;20056;-78
2023/06/27 05:23:07;;;;;;;11.23;6.53;;;19.80;99.90;;;;;;4908432;29;20109;-78
2023/06/27 05:25:34;;;;;;;13.45;6.97;;;19.90;99.90;;;;;;4884259;29;20091;-78
2023/06/27 05:28:01;;;;;;;9.85;6.07;;;19.90;99.90;;;;;;4894521;29;20099;-78
2023/06/27 05:30:29;;;;;;;14.75;7.30;;;19.90;99.90;;;;;;4901597;29;20123;-77
2023/06/27 05:33:03;;;;;;;13.98;6.97;;;19.90;99.90;;;;;;4888926;29;20048;-78
2023/06/27 05:35:31;;;;;;;9.68;6.28;;;20.00;99.90;;;;;;4869148;29;20059;-78
2023/06/27 05:37:59;;;;;;;15.90;7.40;;;20.00;99.90;;;;;;4883984;29;20143;-78
2023/06/27 05:40:27;;;;;;;13.02;6.05;;;20.00;99.90;;;;;;4887540;29;20056;-77
2023/06/27 05:42:54;;;;;;;15.63;7.35;;;20.00;99.90;;;;;;4884496;29;20036;-78
2023/06/27 05:45:24;;;;;;;9.38;6.20;;;20.00;99.90;;;;;;4890299;29;20071;-79
2023/06/27 05:47:51;;;;;;;13.25;7.05;;;20.10;99.90;;;;;;4873339;29;20053;-78
2023/06/27 05:50:19;;;;;;;13.20;6.35;;;20.10;99.90;;;;;;4844355;29;20068;-78
2023/06/27 05:52:46;;;;;;;10.63;5.60;;;20.30;99.90;;;;;;4840453;29;20560;-78
2023/06/27 05:55:13;;;;;;;9.82;6.30;;;20.70;99.90;;;;;;4866871;29;20053;-78
2023/06/27 05:57:40;;;;;;;12.43;5.57;;;21.00;99.90;;;;;;4850852;29;20067;-76
2023/06/27 06:00:14;;;;;;;9.95;5.97;;;21.30;99.90;;;;;;4838794;29;20056;-77
2023/06/27 06:02:44;;;;;;;9.55;5.50;;;21.20;99.90;;;;;;4844785;29;20057;-77
2023/06/27 06:05:14;;;;;;;11.95;5.05;;;21.10;99.90;;;;;;4828640;29;20084;-78
2023/06/27 06:07:43;;;;;;;12.00;5.80;;;21.20;99.90;;;;;;4836699;29;20061;-78
2023/06/27 06:10:11;;;;;;;9.57;5.75;;;21.20;99.90;;;;;;4857580;29;20424;-78
2023/06/27 06:12:39;;;;;;;11.40;6.18;;;21.20;99.90;;;;;;4849317;29;20064;-78
2023/06/27 06:15:07;;;;;;;8.95;4.97;;;21.20;99.90;;;;;;4838084;29;20424;-78
2023/06/27 06:17:34;;;;;;;9.32;5.82;;;21.40;99.90;;;;;;4837655;29;20057;-78
2023/06/27 06:20:03;;;;;;;9.43;5.90;;;21.70;99.90;;;;;;4838904;29;20143;-79
2023/06/27 06:22:31;;;;;;;10.00;6.05;;;22.00;99.90;;;;;;4850673;29;22404;-77
2023/06/27 06:24:58;;;;;;;10.10;6.00;;;22.30;99.90;;;;;;4862428;29;20098;-77
2023/06/27 06:27:26;;;;;;;9.35;6.15;;;22.20;99.90;;;;;;4858017;29;20044;-77
2023/06/27 06:29:53;;;;;;;8.48;5.88;;;22.00;99.90;;;;;;4861407;29;20115;-79
2023/06/27 06:32:20;;;;;;;8.30;6.13;;;22.20;99.90;;;;;;4853667;29;20052;-79
2023/06/27 06:34:47;;;;;;;12.93;5.95;;;22.40;99.90;;;;;;4848113;29;20055;-79
2023/06/27 06:37:14;;;;;;;8.95;5.60;;;22.70;99.90;;;;;;4862357;29;20181;-80
2023/06/27 06:39:42;;;;;;;8.55;6.00;;;22.90;99.90;;;;;;4862394;29;20133;-80
2023/06/27 06:42:10;;;;;;;10.02;5.93;;;23.00;99.90;;;;;;4835005;29;20737;-79
2023/06/27 06:44:37;;;;;;;8.07;5.70;;;23.30;99.90;;;;;;4865013;29;20052;-79
2023/06/27 06:47:05;;;;;;;9.82;6.85;;;23.20;99.90;;;;;;4865414;29;20158;-78
2023/06/27 06:49:32;;;;;;;8.82;5.53;;;23.00;99.90;;;;;;4846328;29;20060;-79
2023/06/27 06:51:59;;;;;;;9.95;5.82;;;23.00;99.90;;;;;;4860418;29;20555;-78
2023/06/27 06:54:26;;;;;;;7.97;5.60;;;23.30;99.90;;;;;;4853673;29;23169;-79
2023/06/27 06:56:54;;;;;;;8.23;4.97;;;23.20;99.90;;;;;;4856840;29;20056;-76
2023/06/27 06:59:21;;;;;;;9.40;5.65;;;23.10;99.90;;;;;;4836097;29;20052;-76
2023/06/27 07:01:48;;;;;;;7.93;5.40;;;23.10;99.90;;;;;;4867872;29;20041;-77
2023/06/27 07:04:15;;;;;;;7.47;5.43;;;23.00;99.90;;;;;;4868184;29;20056;-76
2023/06/27 07:06:42;;;;;;;7.53;5.45;;;22.90;99.90;;;;;;4867397;29;20147;-77
2023/06/27 07:09:09;;;;;;;7.15;4.97;;;22.90;99.90;;;;;;4869426;29;20162;-76
2023/06/27 07:11:37;;;;;;;8.45;5.68;;;22.80;99.90;;;;;;4855325;29;20059;-77
2023/06/27 07:14:04;;;;;;;8.68;5.72;;;23.00;99.90;;;;;;4840804;29;20064;-76
2023/06/27 07:16:31;;;;;;;8.25;5.57;;;22.80;99.90;;;;;;4855238;29;22390;-81
2023/06/27 07:18:58;;;;;;;7.22;5.15;;;22.70;99.90;;;;;;4858605;29;20052;-78
2023/06/27 07:21:25;;;;;;;8.40;5.88;;;22.60;99.90;;;;;;4853212;29;20107;-80
2023/06/27 07:23:53;;;;;;;8.88;5.30;;;22.50;99.90;;;;;;4840211;29;20055;-79
2023/06/27 07:26:20;;;;;;;9.40;5.90;;;22.40;99.90;;;;;;4836094;29;20060;-79
2023/06/27 07:28:47;;;;;;;9.55;5.40;;;22.30;99.90;;;;;;4859856;29;20143;-78
2023/06/27 07:31:14;;;;;;;8.85;5.70;;;22.30;99.90;;;;;;4849547;29;20055;-78
2023/06/27 07:33:41;;;;;;;9.13;6.00;;;22.20;99.90;;;;;;4838670;29;20441;-79
2023/06/27 07:36:08;;;;;;;8.27;5.55;;;22.30;99.90;;;;;;4828789;29;20190;-78
2023/06/27 07:38:37;;;;;;;10.85;6.35;;;22.30;99.90;;;;;;4841715;29;20140;-79
2023/06/27 07:41:04;;;;;;;8.18;5.15;;;22.40;99.90;;;;;;4857144;29;20048;-78
2023/06/27 07:43:31;;;;;;;11.05;5.18;;;22.40;99.90;;;;;;4856930;29;20144;-79
2023/06/27 07:45:59;;;;;;;9.07;5.30;;;22.50;99.90;;;;;;4843203;29;20057;-78
2023/06/27 07:48:26;;;;;;;7.38;5.03;;;22.60;99.90;;;;;;4841135;29;20179;-78
2023/06/27 07:50:53;;;;;;;8.23;5.30;;;22.70;99.90;;;;;;4854682;29;20052;-80
2023/06/27 07:53:20;;;;;;;8.43;5.03;;;22.90;99.90;;;;;;4823512;29;20045;-79
2023/06/27 07:55:47;;;;;;;8.07;4.95;;;22.90;99.10;;;;;;4859089;29;20648;-79
2023/06/27 07:58:14;;;;;;;7.80;4.63;;;22.90;99.10;;;;;;4856115;29;20758;-79
2023/06/27 08:00:42;;;;;;;8.20;4.72;;;23.00;99.10;;;;;;4856304;29;20145;-79
2023/06/27 08:03:09;;;;;;;6.13;4.50;;;23.00;97.80;;;;;;4853216;29;20789;-78
2023/06/27 08:05:38;;;;;;;11.52;5.50;;;23.00;97.80;;;;;;4861094;29;20056;-78
2023/06/27 08:08:07;;;;;;;6.60;4.88;;;23.10;98.30;;;;;;4840107;29;20068;-80
2023/06/27 08:10:35;;;;;;;7.10;4.97;;;23.10;97.60;;;;;;4856002;29;20057;-79
2023/06/27 08:13:02;;;;;;;10.25;5.10;;;23.20;97.30;;;;;;4827889;29;22276;-79
2023/06/27 08:15:29;;;;;;;6.90;5.18;;;23.20;96.80;;;;;;4852557;29;20052;-81
2023/06/27 08:17:57;;;;;;;7.50;5.30;;;23.20;96.90;;;;;;4859520;29;20346;-79
2023/06/27 08:20:24;;;;;;;8.52;5.88;;;23.20;97.70;;;;;;4853085;29;20200;-79
2023/06/27 08:22:51;;;;;;;10.20;5.85;;;23.20;97.30;;;;;;4867733;29;22616;-79
2023/06/27 08:25:19;;;;;;;9.05;5.75;;;23.20;97.50;;;;;;4857148;29;20390;-80
2023/06/27 08:27:46;;;;;;;7.75;5.63;;;23.00;97.20;;;;;;4870857;29;20519;-79
2023/06/27 08:30:14;;;;;;;8.65;5.57;;;23.00;97.50;;;;;;4856141;29;20048;-79
2023/06/27 08:32:41;;;;;;;8.88;5.35;;;23.10;98.20;;;;;;4845414;29;20044;-79
2023/06/27 08:35:08;;;;;;;6.53;4.80;;;23.20;99.00;;;;;;4857847;29;20051;-81
2023/06/27 08:37:35;;;;;;;8.60;5.63;;;23.20;98.80;;;;;;4840192;29;20988;-79
2023/06/27 08:40:03;;;;;;;9.10;5.80;;;23.30;98.30;;;;;;4863785;29;20052;-80
2023/06/27 08:42:31;;;;;;;8.35;5.57;;;23.30;99.00;;;;;;4865586;29;20048;-79
2023/06/27 08:44:59;;;;;;;8.55;5.38;;;23.30;98.60;;;;;;4856038;29;22440;-79
2023/06/27 08:47:29;;;;;;;7.68;5.30;;;23.30;98.10;;;;;;4843627;29;20060;-79
2023/06/27 08:50:05;;;;;;;9.40;6.07;;;23.30;98.30;;;;;;4868422;29;20067;-80
2023/06/27 08:52:38;;;;;;;9.93;5.63;;;23.30;98.50;;;;;;4886409;29;20100;-80
2023/06/27 08:55:10;;;;;;;8.85;5.78;;;23.20;97.70;;;;;;4863374;29;20048;-81
2023/06/27 08:57:38;;;;;;;8.15;5.25;;;23.20;99.10;;;;;;4867815;29;20147;-79
2023/06/27 09:00:11;;;;;;;8.00;5.47;;;23.20;98.50;;;;;;4851858;29;20060;-79
2023/06/27 09:02:40;;;;;;;8.32;5.30;;;23.20;98.50;;;;;;4871911;29;20733;-80
2023/06/27 09:05:08;;;;;;;9.75;5.25;;;23.20;98.70;;;;;;4858975;29;20709;-80
2023/06/27 09:07:36;;;;;;;7.75;5.32;;;23.30;98.80;;;;;;4885651;29;20174;-79
2023/06/27 09:10:04;;;;;;;9.57;5.88;;;23.20;98.30;;;;;;4841813;29;20401;-79
2023/06/27 09:12:32;;;;;;;7.97;6.00;;;23.20;99.00;;;;;;4857328;29;20104;-80
2023/06/27 09:15:02;;;;;;;7.65;5.95;;;23.20;98.50;;;;;;4865402;29;20072;-81
2023/06/27 09:17:30;;;;;;;5.68;4.90;;;23.10;98.70;;;;;;4850780;29;20743;-81
2023/06/27 09:20:00;;;;;;;9.18;5.55;;;23.00;98.10;;;;;;4857691;29;20497;-80
2023/06/27 09:22:28;;;;;;;9.80;5.15;;;22.90;98.70;;;;;;4847555;29;20851;-79
2023/06/27 09:25:21;;;;;;;8.50;5.30;;;22.90;98.40;;;;;;4855378;29;20704;-81
2023/06/27 09:27:49;;;;;;;8.27;6.05;;;23.00;98.80;;;;;;4859470;29;20614;-80
2023/06/27 09:30:20;;;;;;;9.85;6.15;;;23.00;97.90;;;;;;4853869;29;20052;-80
2023/06/27 09:32:58;;;;;;;8.93;5.72;;;23.00;98.20;;;;;;4871419;29;20041;-80
2023/06/27 09:35:27;;;;;;;8.23;5.60;;;23.00;98.20;;;;;;4859317;29;20518;-81
2023/06/27 09:38:15;;;;;;;10.85;6.05;;;23.00;98.80;;;;;;4862721;29;20044;-80
2023/06/27 09:40:45;;;;;;;8.75;5.60;;;23.10;99.00;;;;;;4869610;29;20048;-81
2023/06/27 09:43:14;;;;;;;8.15;5.30;;;23.20;98.70;;;;;;4858397;29;20091;-79
2023/06/27 09:45:42;;;;;;;8.48;5.60;;;23.30;98.80;;;;;;4872650;29;20125;-79
2023/06/27 09:48:11;;;;;;;8.65;6.05;;;23.40;99.10;;;;;;4855318;29;20078;-81
2023/06/27 09:50:39;;;;;;;7.65;5.65;;;23.50;98.70;;;;;;4843354;29;20060;-79
2023/06/27 09:53:07;;;;;;;7.93;5.20;;;23.50;98.80;;;;;;4878209;29;20403;-80
2023/06/27 09:55:34;;;;;;;7.97;5.90;;;23.60;99.20;;;;;;4852365;29;20060;-79
2023/06/27 09:58:03;;;;;;;8.57;6.47;;;23.60;99.20;;;;;;4857220;29;20104;-79
2023/06/27 10:00:31;;;;;;;12.45;6.72;;;23.70;99.20;;;;;;4869196;29;20053;-80
2023/06/27 10:02:58;;;;;;;8.10;6.03;;;23.70;99.30;;;;;;4859858;29;20052;-80
2023/06/27 10:05:26;;;;;;;7.45;6.35;;;23.80;98.50;;;;;;4856076;29;20058;-80
2023/06/27 10:07:58;;;;;;;8.38;5.88;;;23.90;99.70;;;;;;4851900;29;20056;-80
2023/06/27 10:10:26;;;;;;;8.45;5.85;;;24.20;97.90;;;;;;4848627;29;20076;-80
2023/06/27 10:12:54;;;;;;;10.23;6.70;;;24.30;97.50;;;;;;4858275;29;20197;-79
2023/06/27 10:15:21;;;;;;;10.90;6.10;;;24.10;97.00;;;;;;4869899;29;20049;-79
2023/06/27 10:17:48;;;;;;;13.40;7.13;;;24.10;97.50;;;;;;4863415;29;20163;-80
2023/06/27 10:20:16;;;;;;;8.85;6.72;;;24.10;98.20;;;;;;4882676;29;20036;-79
2023/06/27 10:22:45;;;;;;;8.05;5.60;;;24.10;97.80;;;;;;4851214;29;20063;-80
2023/06/27 10:25:12;;;;;;;8.35;6.60;;;24.10;97.60;;;;;;4845189;29;22400;-80
2023/06/27 10:27:42;;;;;;;7.45;6.03;;;24.20;99.50;;;;;;4862127;29;20559;-80
2023/06/27 10:30:18;;;;;;;8.93;6.60;;;24.20;97.80;;;;;;4875329;29;20419;-81
2023/06/27 10:32:47;;;;;;;9.60;6.68;;;24.20;97.40;;;;;;4876010;29;20060;-81
2023/06/27 10:35:25;;;;;;;8.10;6.22;;;24.50;98.70;;;;;;4875584;29;20059;-81
2023/06/27 10:38:17;;;;;;;9.82;5.70;;;24.70;97.00;;;;;;4863464;29;20056;-79
2023/06/27 10:41:09;;;;;;;8.63;5.63;;;24.90;94.50;;;;;;4884915;29;20048;-83
2023/06/27 10:43:47;;;;;;;6.60;4.95;;;24.90;93.20;;;;;;4870120;29;20060;-79
2023/06/27 10:46:26;;;;;;;7.80;5.38;;;24.80;92.80;;;;;;4862110;29;20540;-82
2023/06/27 10:49:06;;;;;;;7.28;4.80;;;24.50;92.20;;;;;;4860376;29;20683;-79
2023/06/27 10:51:43;;;;;;;6.55;4.10;;;24.30;93.30;;;;;;4865530;29;20060;-79
2023/06/27 10:54:17;;;;;;;6.18;5.07;;;24.30;94.00;;;;;;4876473;29;20048;-82
2023/06/27 10:56:56;;;;;;;7.05;4.90;;;24.20;93.30;;;;;;4845220;29;20200;-80
2023/06/27 10:59:23;;;;;;;6.40;4.18;;;24.10;94.20;;;;;;4870671;29;20044;-81
2023/06/27 11:02:02;;;;;;;7.68;4.40;;;24.10;93.70;;;;;;4857178;29;20041;-80
2023/06/27 11:04:43;;;;;;;5.30;4.20;;;23.90;93.60;;;;;;4860691;29;20413;-78
2023/06/27 11:07:17;;;;;;;6.70;4.60;;;23.80;94.40;;;;;;4864793;29;20052;-78
2023/06/27 11:09:55;;;;;;;5.50;4.18;;;23.80;94.10;;;;;;4872898;29;20313;-78
2023/06/27 11:12:23;;;;;;;7.82;4.55;;;23.80;94.00;;;;;;4861063;29;20063;-79
2023/06/27 11:14:53;;;;;;;5.38;4.28;;;23.80;93.80;;;;;;4860520;29;20056;-77
2023/06/27 11:17:23;;;;;;;7.43;4.63;;;23.80;94.50;;;;;;4874363;29;20051;-77
2023/06/27 11:19:51;;;;;;;8.18;3.90;;;23.80;95.00;;;;;;4866836;29;20460;-78
2023/06/27 11:22:18;;;;;;;7.70;3.95;;;23.70;93.50;;;;;;4845587;29;20055;-77
2023/06/27 11:24:46;;;;;;;5.93;3.75;;;23.60;93.80;;;;;;4864248;29;20045;-77
2023/06/27 11:27:13;;;;;;;5.65;3.40;;;23.60;93.10;;;;;;4859204;29;21188;-76
2023/06/27 11:29:42;;;;;;;5.95;4.00;;;23.60;93.10;;;;;;4879428;29;20048;-78
2023/06/27 11:32:10;;;;;;;4.93;3.50;;;23.50;93.50;;;;;;4848759;29;20056;-78
2023/06/27 11:34:41;;;;;;;4.88;3.20;;;23.40;92.90;;;;;;4855843;29;20056;-77
2023/06/27 11:37:10;;;;;;;7.25;3.72;;;23.40;92.10;;;;;;4878909;29;20040;-79
2023/06/27 11:39:38;;;;;;;5.20;3.20;;;23.40;91.90;;;;;;4859535;29;20532;-78
2023/06/27 11:42:05;;;;;;;6.95;3.20;;;23.30;92.20;;;;;;4854597;29;22445;-78
2023/06/27 11:44:34;;;;;;;3.85;2.90;;;23.20;92.20;;;;;;4873629;29;20064;-78
2023/06/27 11:47:06;;;;;;;5.70;2.88;;;23.10;91.50;;;;;;4848069;29;20067;-77
2023/06/27 11:49:35;;;;;;;5.00;2.75;;;23.10;92.20;;;;;;4839789;29;20061;-76
2023/06/27 11:52:02;;;;;;;5.93;3.00;;;23.10;92.30;;;;;;4819164;29;20183;-82
2023/06/27 11:54:29;;;;;;;4.07;3.35;;;23.00;92.10;;;;;;4836924;29;20132;-76
2023/06/27 11:57:02;;;;;;;7.00;2.97;;;23.10;92.40;;;;;;4827373;29;20088;-76
2023/06/27 11:59:31;;;;;;;4.70;3.15;;;23.10;92.90;;;;;;4844843;29;20049;-78
2023/06/27 12:01:59;;;;;;;4.93;2.67;;;23.10;92.80;;;;;;4842715;29;20515;-77
2023/06/27 12:04:26;;;;;;;9.90;3.88;;;23.00;92.30;;;;;;4821820;29;20071;-79
2023/06/27 12:06:53;;;;;;;5.53;3.95;;;23.00;92.50;;;;;;4825896;29;21045;-78
2023/06/27 12:09:25;;;;;;;4.55;3.50;;;22.90;92.70;;;;;;4827125;29;20592;-80
2023/06/27 12:11:56;;;;;;;6.65;3.70;;;22.90;93.20;;;;;;4840438;29;20553;-77
2023/06/27 12:14:25;;;;;;;3.97;3.40;;;22.90;93.30;;;;;;4831659;29;20069;-79
2023/06/27 12:16:55;;;;;;;7.88;4.10;;;22.80;94.40;;;;;;4823623;29;20054;-77
2023/06/27 12:19:23;;;;;;;6.05;3.42;;;22.80;94.70;;;;;;4846607;29;20408;-76
2023/06/27 12:21:53;;;;;;;4.97;3.42;;;22.70;94.60;;;;;;4847999;29;20063;-77
2023/06/27 12:24:21;;;;;;;5.07;3.55;;;22.70;94.60;;;;;;4868531;29;20408;-77
2023/06/27 12:26:48;;;;;;;6.32;4.13;;;22.70;94.40;;;;;;4867778;29;20076;-77
2023/06/27 12:29:16;;;;;;;5.53;4.00;;;22.70;94.80;;;;;;4851687;29;20056;-77
2023/06/27 12:31:46;;;;;;;6.30;4.03;;;22.60;95.30;;;;;;4855666;29;20060;-78
2023/06/27 12:34:13;;;;;;;7.78;4.05;;;22.70;96.00;;;;;;4860939;29;20063;-80
2023/06/27 12:36:40;;;;;;;7.72;4.10;;;22.50;96.20;;;;;;4856801;29;20059;-78
2023/06/27 12:39:08;;;;;;;7.40;3.90;;;22.50;95.70;;;;;;4870782;29;20052;-77
2023/06/27 12:41:35;;;;;;;6.18;3.47;;;22.50;95.40;;;;;;4861567;29;20056;-79
2023/06/27 12:44:02;;;;;;;5.10;3.85;;;22.50;96.00;;;;;;4852879;29;20056;-79
2023/06/27 12:46:31;;;;;;;6.03;3.90;;;22.50;95.90;;;;;;4868899;29;20055;-77
2023/06/27 12:48:58;;;;;;;7.90;4.20;;;22.60;95.80;;;;;;4856067;29;20803;-80
2023/06/27 12:51:25;;;;;;;6.43;3.90;;;22.70;95.40;;;;;;4851141;29;20549;-81